createdAt,value
2023-02-16T00:00:48.620Z,8.20
2023-02-16T00:02:50.253Z,8.10
2023-02-16T00:04:51.902Z,8.10
2023-02-16T00:06:53.785Z,8.10
2023-02-16T00:08:56.137Z,8.10
2023-02-16T00:11:16.436Z,8.10
2023-02-16T00:13:43.464Z,8.10
2023-02-16T00:15:45.372Z,8.10
2023-02-16T00:17:47.034Z,8.10
2023-02-16T00:19:48.659Z,8.10
2023-02-16T00:21:52.091Z,8.10
2023-02-16T00:23:53.757Z,8.10
2023-02-16T00:25:55.856Z,8.10
2023-02-16T00:27:57.569Z,8.10
2023-02-16T00:29:59.472Z,8.00
2023-02-16T00:32:02.091Z,8.10
2023-02-16T00:34:22.152Z,8.00
2023-02-16T00:36:23.890Z,8.00
2023-02-16T00:38:25.556Z,8.00
2023-02-16T00:40:27.278Z,8.00
2023-02-16T00:42:31.884Z,8.00
2023-02-16T00:44:36.440Z,7.90
2023-02-16T00:46:38.145Z,7.90
2023-02-16T00:48:39.803Z,7.90
2023-02-16T00:50:41.512Z,7.80
2023-02-16T00:52:46.397Z,7.90
2023-02-16T00:54:48.053Z,7.80
2023-02-16T00:56:49.835Z,7.80
2023-02-16T00:58:52.418Z,7.80
2023-02-16T01:01:08.012Z,7.80
2023-02-16T01:03:12.875Z,7.80
2023-02-16T01:05:14.751Z,7.80
2023-02-16T01:07:37.395Z,7.80
2023-02-16T01:09:58.919Z,7.80
2023-02-16T01:12:04.344Z,7.80
2023-02-16T01:14:06.085Z,7.80
2023-02-16T01:16:15.283Z,7.80
2023-02-16T01:18:18.283Z,7.80
2023-02-16T01:20:21.181Z,7.80
2023-02-16T01:22:22.829Z,7.80
2023-02-16T01:24:24.463Z,7.80
2023-02-16T01:26:26.093Z,7.80
2023-02-16T01:28:27.755Z,7.80
2023-02-16T01:30:29.586Z,7.80
2023-02-16T01:32:31.362Z,7.80
2023-02-16T01:34:33.724Z,7.80
2023-02-16T01:36:40.153Z,7.80
2023-02-16T01:38:41.811Z,7.80
2023-02-16T01:40:46.169Z,7.80
2023-02-16T01:42:51.574Z,7.80
2023-02-16T01:45:15.231Z,7.80
2023-02-16T01:47:26.240Z,7.80
2023-02-16T01:49:27.924Z,7.80
2023-02-16T01:51:40.896Z,7.70
2023-02-16T01:53:45.025Z,7.80
2023-02-16T01:55:48.209Z,7.80
2023-02-16T01:57:51.244Z,7.80
2023-02-16T01:59:52.820Z,7.80
2023-02-16T02:02:02.073Z,7.80
2023-02-16T02:04:41.454Z,7.80
2023-02-16T02:06:43.405Z,7.80
2023-02-16T02:08:51.273Z,7.80
2023-02-16T02:11:00.362Z,7.80
2023-02-16T02:13:07.145Z,7.80
2023-02-16T02:15:10.951Z,7.80
2023-02-16T02:17:14.467Z,7.80
2023-02-16T02:19:16.084Z,7.80
2023-02-16T02:21:45.556Z,7.80
2023-02-16T02:23:50.487Z,7.80
2023-02-16T02:26:04.322Z,7.80
2023-02-16T02:28:17.390Z,7.80
2023-02-16T02:30:25.009Z,7.80
2023-02-16T02:32:40.280Z,7.80
2023-02-16T02:34:51.079Z,7.80
2023-02-16T02:37:09.086Z,7.80
2023-02-16T02:39:10.743Z,7.80
2023-02-16T02:41:18.534Z,7.70
2023-02-16T02:43:24.977Z,7.80
2023-02-16T02:45:42.463Z,7.70
2023-02-16T02:47:45.414Z,7.70
2023-02-16T02:49:51.716Z,7.70
2023-02-16T02:51:53.519Z,7.80
2023-02-16T02:54:23.579Z,7.70
2023-02-16T02:56:46.865Z,7.70
2023-02-16T02:59:12.753Z,7.70
2023-02-16T03:01:16.350Z,7.80
2023-02-16T03:03:25.056Z,7.80
2023-02-16T03:05:29.083Z,7.80
2023-02-16T03:07:46.991Z,7.80
2023-02-16T03:10:08.678Z,7.80
2023-02-16T03:12:30.198Z,7.80
2023-02-16T03:14:36.258Z,7.80
2023-02-16T03:16:41.262Z,7.70
2023-02-16T03:19:01.844Z,7.70
2023-02-16T03:21:22.339Z,7.70
2023-02-16T03:23:42.487Z,7.70
2023-02-16T03:26:03.032Z,7.60
2023-02-16T03:28:25.006Z,7.60
2023-02-16T03:30:27.215Z,7.60
2023-02-16T03:32:29.188Z,7.60
2023-02-16T03:34:32.007Z,7.60
2023-02-16T03:36:35.197Z,7.60
2023-02-16T03:38:39.127Z,7.60
2023-02-16T03:40:41.744Z,7.60
2023-02-16T03:42:50.263Z,7.60
2023-02-16T03:44:52.180Z,7.60
2023-02-16T03:46:53.827Z,7.60
2023-02-16T03:48:55.449Z,7.60
2023-02-16T03:50:57.115Z,7.60
2023-02-16T03:53:06.884Z,7.60
2023-02-16T03:55:08.788Z,7.60
2023-02-16T03:57:10.464Z,7.50
2023-02-16T03:59:12.208Z,7.50
2023-02-16T04:01:13.982Z,7.60
2023-02-16T04:03:15.613Z,7.50
2023-02-16T04:05:17.230Z,7.60
2023-02-16T04:07:18.868Z,7.50
2023-02-16T04:09:20.476Z,7.50
2023-02-16T04:11:40.852Z,7.60
2023-02-16T04:13:42.490Z,7.50
2023-02-16T04:15:44.134Z,7.60
2023-02-16T04:17:46.095Z,7.60
2023-02-16T04:19:47.690Z,7.60
2023-02-16T04:21:49.349Z,7.60
2023-02-16T04:23:51.024Z,7.60
2023-02-16T04:25:52.901Z,7.60
2023-02-16T04:27:54.847Z,7.60
2023-02-16T04:29:56.630Z,7.60
2023-02-16T04:31:58.506Z,7.60
2023-02-16T04:34:00.258Z,7.60
2023-02-16T04:36:01.850Z,7.50
2023-02-16T04:38:03.556Z,7.60
2023-02-16T04:40:06.047Z,7.60
2023-02-16T04:42:07.695Z,7.50
2023-02-16T04:44:09.429Z,7.50
2023-02-16T04:46:11.095Z,7.50
2023-02-16T04:48:12.704Z,7.50
2023-02-16T04:50:14.372Z,7.50
2023-02-16T04:52:16.037Z,7.50
2023-02-16T04:54:17.702Z,7.50
2023-02-16T04:56:19.401Z,7.50
2023-02-16T04:58:21.108Z,7.50
2023-02-16T05:00:22.755Z,7.50
2023-02-16T05:02:24.388Z,7.50
2023-02-16T05:04:26.058Z,7.50
2023-02-16T05:06:27.686Z,7.50
2023-02-16T05:08:29.801Z,7.50
2023-02-16T05:10:31.453Z,7.50
2023-02-16T05:12:51.614Z,7.50
2023-02-16T05:14:53.264Z,7.50
2023-02-16T05:16:54.880Z,7.50
2023-02-16T05:18:58.730Z,7.50
2023-02-16T05:21:19.379Z,7.50
2023-02-16T05:23:21.012Z,7.50
2023-02-16T05:25:22.618Z,7.50
2023-02-16T05:27:25.272Z,7.50
2023-02-16T05:29:26.919Z,7.50
2023-02-16T05:31:29.086Z,7.50
2023-02-16T05:33:30.825Z,7.50
2023-02-16T05:35:33.561Z,7.50
2023-02-16T05:37:35.240Z,7.50
2023-02-16T05:39:36.874Z,7.50
2023-02-16T05:41:38.539Z,7.50
2023-02-16T05:43:40.147Z,7.50
2023-02-16T05:45:41.875Z,7.40
2023-02-16T05:47:45.073Z,7.40
2023-02-16T05:49:48.448Z,7.40
2023-02-16T05:51:50.079Z,7.30
2023-02-16T05:53:51.717Z,7.40
2023-02-16T05:55:53.370Z,7.30
2023-02-16T05:57:55.017Z,7.30
2023-02-16T05:59:56.683Z,7.30
2023-02-16T06:01:58.364Z,7.30
2023-02-16T06:04:00.036Z,7.30
2023-02-16T06:06:02.345Z,7.30
2023-02-16T06:08:04.101Z,7.30
2023-02-16T06:10:06.371Z,7.30
2023-02-16T06:12:08.034Z,7.30
2023-02-16T06:14:11.050Z,7.30
2023-02-16T06:16:12.739Z,7.30
2023-02-16T06:18:14.393Z,7.30
2023-02-16T06:20:16.032Z,7.30
2023-02-16T06:22:17.669Z,7.30
2023-02-16T06:24:19.337Z,7.30
2023-02-16T06:26:21.219Z,7.30
2023-02-16T06:28:22.875Z,7.30
2023-02-16T06:30:25.232Z,7.30
2023-02-16T06:32:27.075Z,7.30
2023-02-16T06:34:28.727Z,7.30
2023-02-16T06:36:30.367Z,7.30
2023-02-16T06:38:32.034Z,7.30
2023-02-16T06:40:33.746Z,7.30
2023-02-16T06:42:35.840Z,7.30
2023-02-16T06:44:38.441Z,7.30
2023-02-16T06:46:44.212Z,7.30
2023-02-16T06:48:45.862Z,7.30
2023-02-16T06:50:47.485Z,7.30
2023-02-16T06:52:49.077Z,7.40
2023-02-16T06:54:50.863Z,7.40
2023-02-16T06:56:52.482Z,7.30
2023-02-16T06:58:54.092Z,7.40
2023-02-16T07:00:55.778Z,7.30
2023-02-16T07:02:57.455Z,7.40
2023-02-16T07:04:59.075Z,7.40
2023-02-16T07:07:00.691Z,7.40
2023-02-16T07:09:02.747Z,7.30
2023-02-16T07:11:05.558Z,7.30
2023-02-16T07:13:07.441Z,7.30
2023-02-16T07:15:09.448Z,7.30
2023-02-16T07:17:11.109Z,7.30
2023-02-16T07:19:13.470Z,7.30
2023-02-16T07:21:15.381Z,7.30
2023-02-16T07:23:16.995Z,7.30
2023-02-16T07:25:18.654Z,7.40
2023-02-16T07:27:20.349Z,7.40
2023-02-16T07:29:22.045Z,7.30
2023-02-16T07:31:26.423Z,7.40
2023-02-16T07:33:28.109Z,7.40
2023-02-16T07:35:29.760Z,7.40
2023-02-16T07:37:31.418Z,7.40
2023-02-16T07:39:33.086Z,7.50
2023-02-16T07:41:34.689Z,7.50
2023-02-16T07:43:42.969Z,7.50
2023-02-16T07:45:44.734Z,7.50
2023-02-16T07:47:46.391Z,7.50
2023-02-16T07:49:48.070Z,7.50
2023-02-16T07:51:49.737Z,7.60
2023-02-16T07:53:51.895Z,7.60
2023-02-16T07:55:53.571Z,7.60
2023-02-16T07:57:58.048Z,7.70
2023-02-16T07:59:59.733Z,7.70
2023-02-16T08:02:01.471Z,7.70
2023-02-16T08:04:03.258Z,7.70
2023-02-16T08:06:05.227Z,7.70
2023-02-16T08:08:06.864Z,7.80
2023-02-16T08:10:08.820Z,7.80
2023-02-16T08:12:11.183Z,7.80
2023-02-16T08:14:12.842Z,7.90
2023-02-16T08:16:16.650Z,7.90
2023-02-16T08:18:18.428Z,7.90
2023-02-16T08:20:20.340Z,8.00
2023-02-16T08:22:22.919Z,8.00
2023-02-16T08:24:27.475Z,8.00
2023-02-16T08:26:37.297Z,8.10
2023-02-16T08:28:39.195Z,8.10
2023-02-16T08:30:40.869Z,8.10
2023-02-16T08:32:43.518Z,8.20
2023-02-16T08:34:45.189Z,8.20
2023-02-16T08:36:47.862Z,8.30
2023-02-16T08:38:50.948Z,8.30
2023-02-16T08:40:52.602Z,8.40
2023-02-16T08:42:54.265Z,8.40
2023-02-16T08:44:55.951Z,8.40
2023-02-16T08:46:59.387Z,8.50
2023-02-16T08:49:01.454Z,8.50
2023-02-16T08:51:03.233Z,8.50
2023-02-16T08:53:04.945Z,8.60
2023-02-16T08:55:06.813Z,8.60
2023-02-16T08:57:08.505Z,8.60
2023-02-16T08:59:10.143Z,8.70
2023-02-16T09:01:12.905Z,8.70
2023-02-16T09:03:14.543Z,8.70
2023-02-16T09:05:16.506Z,8.80
2023-02-16T09:07:18.953Z,8.80
2023-02-16T09:09:20.643Z,8.80
2023-02-16T09:11:22.755Z,8.80
2023-02-16T09:13:24.473Z,8.90
2023-02-16T09:15:26.149Z,8.90
2023-02-16T09:17:28.805Z,8.90
2023-02-16T09:19:30.439Z,9.00
2023-02-16T09:21:33.067Z,9.00
2023-02-16T09:23:35.618Z,9.00
2023-02-16T09:25:38.436Z,9.10
2023-02-16T09:27:40.192Z,9.10
2023-02-16T09:29:41.961Z,9.20
2023-02-16T09:31:45.013Z,9.20
2023-02-16T09:33:46.889Z,9.30
2023-02-16T09:35:49.519Z,9.30
2023-02-16T09:37:51.417Z,9.40
2023-02-16T09:39:53.215Z,9.40
2023-02-16T09:42:06.332Z,9.50
2023-02-16T09:44:31.106Z,9.50
2023-02-16T09:46:33.409Z,9.60
2023-02-16T09:48:37.445Z,9.60
2023-02-16T09:50:53.302Z,9.70
2023-02-16T09:53:00.938Z,9.80
2023-02-16T09:55:05.933Z,9.80
2023-02-16T09:57:27.873Z,9.90
2023-02-16T09:59:58.341Z,10.00
2023-02-16T10:02:07.521Z,10.00
2023-02-16T10:04:09.159Z,10.10
2023-02-16T10:06:13.951Z,10.20
2023-02-16T10:08:19.137Z,10.30
2023-02-16T10:10:26.098Z,10.30
2023-02-16T10:12:32.103Z,10.40
2023-02-16T10:14:41.315Z,10.40
2023-02-16T10:16:46.761Z,10.60
2023-02-16T10:18:50.528Z,10.60
2023-02-16T10:20:56.471Z,10.70
2023-02-16T10:23:02.332Z,10.80
2023-02-16T10:25:33.559Z,10.90
2023-02-16T10:27:38.074Z,10.90
2023-02-16T10:29:39.887Z,11.00
2023-02-16T10:31:43.639Z,11.10
2023-02-16T10:33:53.409Z,11.20
2023-02-16T10:36:03.066Z,11.20
2023-02-16T10:38:07.526Z,11.30
2023-02-16T10:40:12.208Z,11.50
2023-02-16T10:42:32.948Z,11.50
2023-02-16T10:44:37.179Z,11.60
2023-02-16T10:46:41.785Z,11.70
2023-02-16T10:48:44.472Z,11.70
2023-02-16T10:50:49.051Z,11.80
2023-02-16T10:52:52.411Z,11.90
2023-02-16T10:54:54.421Z,12.00
2023-02-16T10:56:59.580Z,12.10
2023-02-16T10:59:04.536Z,12.10
2023-02-16T11:01:06.402Z,12.30
2023-02-16T11:03:11.919Z,12.30
2023-02-16T11:05:26.231Z,12.40
2023-02-16T11:07:28.680Z,12.50
2023-02-16T11:09:30.507Z,12.50
2023-02-16T11:11:36.843Z,12.60
2023-02-16T11:13:38.567Z,12.70
2023-02-16T11:15:41.128Z,12.80
2023-02-16T11:17:52.609Z,12.90
2023-02-16T11:19:54.313Z,13.00
2023-02-16T11:21:56.516Z,13.10
2023-02-16T11:23:59.774Z,13.10
2023-02-16T11:26:03.012Z,13.20
2023-02-16T11:28:08.268Z,13.20
2023-02-16T11:30:22.438Z,13.20
2023-02-16T11:32:24.270Z,13.30
2023-02-16T11:34:28.824Z,13.30
2023-02-16T11:36:30.514Z,13.30
2023-02-16T11:38:34.079Z,13.30
2023-02-16T11:40:35.755Z,13.40
2023-02-16T11:42:44.310Z,13.50
2023-02-16T11:44:51.142Z,13.50
2023-02-16T11:46:53.535Z,13.60
2023-02-16T11:48:55.324Z,13.60
2023-02-16T11:50:59.309Z,13.60
2023-02-16T11:53:09.908Z,13.70
2023-02-16T11:55:19.267Z,13.70
2023-02-16T11:57:29.591Z,13.80
2023-02-16T11:59:34.662Z,13.80
2023-02-16T12:01:39.890Z,13.80
2023-02-16T12:03:41.738Z,13.80
2023-02-16T12:05:59.314Z,13.90
2023-02-16T12:08:10.151Z,14.00
2023-02-16T12:10:21.040Z,13.90
2023-02-16T12:12:32.045Z,14.00
2023-02-16T12:14:41.167Z,14.00
2023-02-16T12:16:52.769Z,14.00
2023-02-16T12:18:54.429Z,14.00
2023-02-16T12:20:56.105Z,14.00
2023-02-16T12:23:06.676Z,14.10
2023-02-16T12:25:27.416Z,14.10
2023-02-16T12:27:47.900Z,14.10
2023-02-16T12:29:59.198Z,14.10
2023-02-16T12:32:07.282Z,14.10
2023-02-16T12:34:11.733Z,14.10
2023-02-16T12:36:13.358Z,14.10
2023-02-16T12:38:22.950Z,14.20
2023-02-16T12:40:30.458Z,14.20
2023-02-16T12:42:41.440Z,14.30
2023-02-16T12:44:48.650Z,14.30
2023-02-16T12:46:56.988Z,14.30
2023-02-16T12:49:01.094Z,14.30
2023-02-16T12:51:06.972Z,14.40
2023-02-16T12:53:14.621Z,14.40
2023-02-16T12:55:19.694Z,14.40
2023-02-16T12:57:22.996Z,14.40
2023-02-16T12:59:26.247Z,14.40
2023-02-16T13:01:30.243Z,14.40
2023-02-16T13:03:52.833Z,14.40
2023-02-16T13:06:04.200Z,14.40
2023-02-16T13:08:11.310Z,14.40
2023-02-16T13:10:15.915Z,14.50
2023-02-16T13:12:39.310Z,14.40
2023-02-16T13:14:42.862Z,14.50
2023-02-16T13:16:55.932Z,14.50
2023-02-16T13:18:58.148Z,14.60
2023-02-16T13:21:05.527Z,14.60
2023-02-16T13:23:13.201Z,14.60
2023-02-16T13:25:27.739Z,14.60
2023-02-16T13:27:35.914Z,14.70
2023-02-16T13:29:38.283Z,14.70
2023-02-16T13:31:56.373Z,14.70
2023-02-16T13:34:24.472Z,14.80
2023-02-16T13:36:39.033Z,14.90
2023-02-16T13:38:46.714Z,14.90
2023-02-16T13:40:51.392Z,14.90
2023-02-16T13:43:01.826Z,15.00
2023-02-16T13:45:05.748Z,15.00
2023-02-16T13:47:11.614Z,15.00
2023-02-16T13:49:32.311Z,15.10
2023-02-16T13:51:40.507Z,15.10
2023-02-16T13:53:43.114Z,15.20
2023-02-16T13:55:45.759Z,15.10
2023-02-16T13:57:50.729Z,15.10
2023-02-16T14:00:01.227Z,15.20
2023-02-16T14:02:03.467Z,15.20
2023-02-16T14:04:08.958Z,15.20
2023-02-16T14:06:29.429Z,15.20
2023-02-16T14:08:31.261Z,15.20
2023-02-16T14:10:48.377Z,15.20
2023-02-16T14:12:52.301Z,15.10
2023-02-16T14:14:53.994Z,15.20
2023-02-16T14:16:55.707Z,15.20
2023-02-16T14:19:02.539Z,15.20
2023-02-16T14:21:06.329Z,15.20
2023-02-16T14:23:26.166Z,15.20
2023-02-16T14:25:28.975Z,15.20
2023-02-16T14:27:44.793Z,15.20
2023-02-16T14:30:02.539Z,15.20
2023-02-16T14:32:04.264Z,15.20
2023-02-16T14:34:12.511Z,15.20
2023-02-16T14:36:15.780Z,15.20
2023-02-16T14:38:21.291Z,15.20
2023-02-16T14:40:35.273Z,15.30
2023-02-16T14:42:37.059Z,15.30
2023-02-16T14:44:44.391Z,15.30
2023-02-16T14:47:06.374Z,15.30
2023-02-16T14:49:08.128Z,15.30
2023-02-16T14:51:12.966Z,15.30
2023-02-16T14:53:37.871Z,15.30
2023-02-16T14:55:54.641Z,15.30
2023-02-16T14:58:06.180Z,15.20
2023-02-16T15:00:26.851Z,15.30
2023-02-16T15:02:30.058Z,15.30
2023-02-16T15:04:32.674Z,15.20
2023-02-16T15:06:38.642Z,15.20
2023-02-16T15:08:48.612Z,15.20
2023-02-16T15:10:58.328Z,15.20
2023-02-16T15:13:00.141Z,15.20
2023-02-16T15:15:03.384Z,15.20
2023-02-16T15:17:07.561Z,15.20
2023-02-16T15:19:11.964Z,15.20
2023-02-16T15:21:28.265Z,15.20
2023-02-16T15:23:31.378Z,15.20
2023-02-16T15:25:42.080Z,15.20
2023-02-16T15:27:52.458Z,15.20
2023-02-16T15:30:06.693Z,15.20
2023-02-16T15:32:09.441Z,15.10
2023-02-16T15:34:13.515Z,15.10
2023-02-16T15:36:17.948Z,15.10
2023-02-16T15:38:24.475Z,15.10
2023-02-16T15:40:27.302Z,15.10
2023-02-16T15:42:29.588Z,15.10
2023-02-16T15:44:34.437Z,15.10
2023-02-16T15:46:41.011Z,15.10
2023-02-16T15:48:42.909Z,15.10
2023-02-16T15:50:44.987Z,15.10
2023-02-16T15:52:47.626Z,15.10
2023-02-16T15:54:49.938Z,15.10
2023-02-16T15:56:52.653Z,15.10
2023-02-16T15:58:55.572Z,15.10
2023-02-16T16:00:58.147Z,15.10
2023-02-16T16:03:00.835Z,15.10
2023-02-16T16:05:04.705Z,15.00
2023-02-16T16:07:08.303Z,15.00
2023-02-16T16:09:17.544Z,15.00
2023-02-16T16:11:19.306Z,15.00
2023-02-16T16:13:23.410Z,15.00
2023-02-16T16:15:26.931Z,15.00
2023-02-16T16:17:33.396Z,15.00
2023-02-16T16:19:36.824Z,15.00
2023-02-16T16:21:45.831Z,15.00
2023-02-16T16:23:58.080Z,15.00
2023-02-16T16:25:59.881Z,15.00
2023-02-16T16:28:02.003Z,15.00
2023-02-16T16:30:09.757Z,15.00
2023-02-16T16:32:18.395Z,15.00
2023-02-16T16:34:36.925Z,15.00
2023-02-16T16:36:46.853Z,15.00
2023-02-16T16:38:48.614Z,15.00
2023-02-16T16:40:51.717Z,14.90
2023-02-16T16:43:02.656Z,14.90
2023-02-16T16:45:36.850Z,15.00
2023-02-16T16:47:39.810Z,14.90
2023-02-16T16:49:48.228Z,14.90
2023-02-16T16:51:53.276Z,14.90
2023-02-16T16:54:03.934Z,14.80
2023-02-16T16:56:09.776Z,14.90
2023-02-16T16:58:11.431Z,14.80
2023-02-16T17:00:13.648Z,14.80
2023-02-16T17:02:15.347Z,14.80
2023-02-16T17:04:17.075Z,14.80
2023-02-16T17:06:19.258Z,14.80
2023-02-16T17:08:20.948Z,14.80
2023-02-16T17:10:23.012Z,14.80
2023-02-16T17:12:24.979Z,14.70
2023-02-16T17:14:28.534Z,14.70
2023-02-16T17:16:32.826Z,14.70
2023-02-16T17:18:34.576Z,14.70
2023-02-16T17:20:36.312Z,14.70
2023-02-16T17:22:38.092Z,14.70
2023-02-16T17:24:39.799Z,14.70
2023-02-16T17:26:41.635Z,14.70
2023-02-16T17:28:43.307Z,14.60
2023-02-16T17:30:45.108Z,14.60
2023-02-16T17:32:47.084Z,14.60
2023-02-16T17:34:48.824Z,14.60
2023-02-16T17:36:50.576Z,14.60
2023-02-16T17:38:52.366Z,14.50
2023-02-16T17:40:55.056Z,14.50
2023-02-16T17:42:56.810Z,14.50
2023-02-16T17:44:58.615Z,14.40
2023-02-16T17:47:00.383Z,14.40
2023-02-16T17:49:02.120Z,14.40
2023-02-16T17:51:04.065Z,14.30
2023-02-16T17:53:11.133Z,14.30
2023-02-16T17:55:13.311Z,14.30
2023-02-16T17:57:14.984Z,14.20
2023-02-16T17:59:16.812Z,14.20
2023-02-16T18:01:19.614Z,14.20
2023-02-16T18:03:22.977Z,14.20
2023-02-16T18:05:24.745Z,14.10
2023-02-16T18:07:27.282Z,14.10
2023-02-16T18:09:29.242Z,14.10
2023-02-16T18:11:31.047Z,14.00
2023-02-16T18:13:32.880Z,14.00
2023-02-16T18:15:34.666Z,14.00
2023-02-16T18:17:36.504Z,14.00
2023-02-16T18:19:38.509Z,13.90
2023-02-16T18:21:40.175Z,13.90
2023-02-16T18:23:42.165Z,13.90
2023-02-16T18:25:44.185Z,13.90
2023-02-16T18:27:45.946Z,13.90
2023-02-16T18:29:47.744Z,13.90
2023-02-16T18:31:49.616Z,13.90
2023-02-16T18:33:51.353Z,13.80
2023-02-16T18:35:54.459Z,13.80
2023-02-16T18:37:56.220Z,13.80
2023-02-16T18:39:58.044Z,13.80
2023-02-16T18:41:59.797Z,13.80
2023-02-16T18:44:01.701Z,13.80
2023-02-16T18:46:07.441Z,13.80
2023-02-16T18:48:09.589Z,13.80
2023-02-16T18:50:12.387Z,13.70
2023-02-16T18:52:14.142Z,13.70
2023-02-16T18:54:15.923Z,13.70
2023-02-16T18:56:17.710Z,13.70
2023-02-16T18:58:19.450Z,13.70
2023-02-16T19:00:21.852Z,13.70
2023-02-16T19:02:23.665Z,13.70
2023-02-16T19:04:26.278Z,13.70
2023-02-16T19:06:28.696Z,13.60
2023-02-16T19:08:30.542Z,13.60
2023-02-16T19:10:32.856Z,13.60
2023-02-16T19:12:34.704Z,13.60
2023-02-16T19:14:36.593Z,13.60
2023-02-16T19:16:39.078Z,13.60
2023-02-16T19:18:40.968Z,13.60
2023-02-16T19:20:42.821Z,13.60
2023-02-16T19:22:45.772Z,13.50
2023-02-16T19:24:49.475Z,13.60
2023-02-16T19:26:52.170Z,13.50
2023-02-16T19:28:54.123Z,13.50
2023-02-16T19:31:00.005Z,13.50
2023-02-16T19:33:01.899Z,13.50
2023-02-16T19:35:03.833Z,13.50
2023-02-16T19:37:05.844Z,13.50
2023-02-16T19:39:07.881Z,13.40
2023-02-16T19:41:11.326Z,13.40
2023-02-16T19:43:13.148Z,13.40
2023-02-16T19:45:15.183Z,13.40
2023-02-16T19:47:17.576Z,13.40
2023-02-16T19:49:19.980Z,13.40
2023-02-16T19:51:21.775Z,13.40
2023-02-16T19:53:23.691Z,13.40
2023-02-16T19:55:25.589Z,13.40
2023-02-16T19:57:27.382Z,13.40
2023-02-16T19:59:29.256Z,13.40
2023-02-16T20:01:31.120Z,13.30
2023-02-16T20:03:32.970Z,13.30
2023-02-16T20:05:34.821Z,13.30
2023-02-16T20:07:36.858Z,13.40
2023-02-16T20:09:38.870Z,13.30
2023-02-16T20:11:40.735Z,13.30
2023-02-16T20:13:42.890Z,13.30
2023-02-16T20:15:44.745Z,13.30
2023-02-16T20:17:46.625Z,13.30
2023-02-16T20:19:48.298Z,13.30
2023-02-16T20:21:50.260Z,13.20
2023-02-16T20:23:53.582Z,13.30
2023-02-16T20:25:55.941Z,13.30
2023-02-16T20:27:58.181Z,13.30
2023-02-16T20:30:01.746Z,13.20
2023-02-16T20:32:05.083Z,13.20
2023-02-16T20:34:07.196Z,13.20
2023-02-16T20:36:09.031Z,13.20
2023-02-16T20:38:10.715Z,13.20
2023-02-16T20:40:12.589Z,13.20
2023-02-16T20:42:14.371Z,13.20
2023-02-16T20:44:16.533Z,13.20
2023-02-16T20:46:19.014Z,13.20
2023-02-16T20:48:21.051Z,13.30
2023-02-16T20:50:22.796Z,13.30
2023-02-16T20:52:24.539Z,13.30
2023-02-16T20:54:26.290Z,13.30
2023-02-16T20:56:28.332Z,13.30
2023-02-16T20:58:30.368Z,13.30
2023-02-16T21:00:32.265Z,13.40
2023-02-16T21:02:34.026Z,13.30
2023-02-16T21:04:35.804Z,13.40
2023-02-16T21:06:37.677Z,13.30
2023-02-16T21:08:39.969Z,13.30
2023-02-16T21:10:41.764Z,13.30
2023-02-16T21:12:43.578Z,13.30
2023-02-16T21:14:45.292Z,13.40
2023-02-16T21:16:47.009Z,13.40
2023-02-16T21:18:49.153Z,13.40
2023-02-16T21:20:51.382Z,13.40
2023-02-16T21:22:53.145Z,13.40
2023-02-16T21:24:54.892Z,13.40
2023-02-16T21:26:56.655Z,13.50
2023-02-16T21:28:58.384Z,13.50
2023-02-16T21:31:10.582Z,13.50
2023-02-16T21:33:12.454Z,13.50
2023-02-16T21:35:14.268Z,13.50
2023-02-16T21:37:16.074Z,13.50
2023-02-16T21:39:17.850Z,13.50
2023-02-16T21:41:24.855Z,13.60
2023-02-16T21:43:26.782Z,13.60
2023-02-16T21:45:28.670Z,13.60
2023-02-16T21:47:48.850Z,13.60
2023-02-16T21:49:50.664Z,13.60
2023-02-16T21:51:52.648Z,13.60
2023-02-16T21:53:54.646Z,13.60
2023-02-16T21:56:15.104Z,13.60
2023-02-16T21:58:16.948Z,13.70
2023-02-16T22:00:19.344Z,13.70
2023-02-16T22:02:21.016Z,13.60
2023-02-16T22:04:22.951Z,13.70
2023-02-16T22:06:28.715Z,13.70
2023-02-16T22:08:32.251Z,13.70
2023-02-16T22:10:34.195Z,13.80
2023-02-16T22:12:35.987Z,13.80
2023-02-16T22:14:37.711Z,13.80
2023-02-16T22:16:39.654Z,13.80
2023-02-16T22:18:41.372Z,13.80
2023-02-16T22:20:43.160Z,13.80
2023-02-16T22:22:44.907Z,13.80
2023-02-16T22:24:46.580Z,13.80
2023-02-16T22:26:49.125Z,13.80
2023-02-16T22:28:51.265Z,13.80
2023-02-16T22:30:53.041Z,13.80
2023-02-16T22:32:54.834Z,13.80
2023-02-16T22:34:56.552Z,13.80
2023-02-16T22:36:58.270Z,13.80
2023-02-16T22:39:00.182Z,13.80
2023-02-16T22:41:05.953Z,13.90
2023-02-16T22:43:07.711Z,13.80
2023-02-16T22:45:09.771Z,13.80
2023-02-16T22:47:11.532Z,13.90
2023-02-16T22:49:13.255Z,13.90
2023-02-16T22:51:15.909Z,13.90
2023-02-16T22:53:17.704Z,13.90
2023-02-16T22:55:19.485Z,13.90
2023-02-16T22:57:21.254Z,13.90
2023-02-16T22:59:23.006Z,13.90
2023-02-16T23:01:25.235Z,13.90
2023-02-16T23:03:27.628Z,13.90
2023-02-16T23:05:30.056Z,13.90
2023-02-16T23:07:32.525Z,13.90
2023-02-16T23:09:34.236Z,13.90
2023-02-16T23:11:36.221Z,13.90
2023-02-16T23:13:38.100Z,13.90
2023-02-16T23:15:39.970Z,14.00
2023-02-16T23:17:41.866Z,14.00
2023-02-16T23:19:43.643Z,14.00
2023-02-16T23:21:46.131Z,14.00
2023-02-16T23:23:48.469Z,14.00
2023-02-16T23:25:50.158Z,14.00
2023-02-16T23:27:53.129Z,14.00
2023-02-16T23:29:54.932Z,14.00
2023-02-16T23:31:56.730Z,14.00
2023-02-16T23:34:00.012Z,14.00
2023-02-16T23:36:03.868Z,14.00
2023-02-16T23:38:06.572Z,14.00
2023-02-16T23:40:08.711Z,14.00
2023-02-16T23:42:10.394Z,14.00
2023-02-16T23:44:13.112Z,14.00
2023-02-16T23:46:14.874Z,14.00
2023-02-16T23:48:16.932Z,14.00
2023-02-16T23:50:18.702Z,14.10
2023-02-16T23:52:20.398Z,14.10
2023-02-16T23:54:22.036Z,14.10
2023-02-16T23:56:24.971Z,14.00
2023-02-16T23:58:30.835Z,14.10
